Latest Weather Observations for Kuitpo

IDS60901

Issued at 10:31 pm CDT Friday 12 February 2016 (issued every 10 minutes, with the page automatically refreshed every 10 minutes)

About weather observations | Map of Adelaide area stations | Latest observations for Adelaide area | Other Formats
Station Details ID: 023887 Name: KUITPO FOREST RESERVE Lat: -35.17 Lon: 138.68 Height: 365.0 m
Data from the previous 72 hours. | See also: Recent months at Kuitpo
Date/Time
CDT
Tmp

°C
App
Tmp
°C
Dew
Point
°C
Rel
Hum
%
Delta-T

°C
Wind Press
QNH
hPa
Press
MSL
hPa
Rain
since
9 am
mm
Dir
 
Spd
km/h
Gust
km/h
Spd
kts
Gust
kts
12/10:30pm 21.5 18.7 5.0 34 8.3 NW 9 9 5 5 1012.4 1011.0 0.0
12/10:00pm 20.3 17.3 5.9 39 7.3 NNE 11 13 6 7 1012.4 1011.0 0.0
12/09:30pm 20.2 17.7 6.5 41 7.0 NE 9 11 5 6 1012.4 1011.0 0.0
12/09:00pm 21.4 18.5 4.5 33 8.4 WSW 9 13 5 7 1012.5 1011.2 0.0
12/08:30pm 20.5 18.8 8.2 45 6.5 WSW 7 11 4 6 1012.6 1011.3 0.0
12/08:00pm 21.7 19.9 12.0 54 5.5 WSW 13 19 7 10 1012.7 1011.4 0.0
12/07:30pm 24.5 19.6 2.0 23 10.9 WSW 17 24 9 13 1012.4 1011.0 0.0
12/07:00pm 26.0 22.0 5.0 26 10.8 WSW 15 24 8 13 1012.2 1010.8 0.0
12/06:30pm 27.4 23.1 5.1 24 11.6 WSW 17 24 9 13 1012.0 1010.6 0.0
12/06:00pm 28.4 24.7 6.5 25 11.8 W 15 24 8 13 1011.9 1010.5 0.0
12/05:30pm 29.1 26.0 7.1 25 12.0 W 13 22 7 12 1011.9 1010.5 0.0
12/05:00pm 28.7 25.1 6.7 25 11.9 WSW 15 24 8 13 1012.1 1010.7 0.0
12/04:30pm 29.0 25.3 6.4 24 12.2 W 15 26 8 14 1012.2 1010.8 0.0
12/04:00pm 30.2 27.3 8.0 25 12.4 WSW 13 20 7 11 1012.4 1011.0 0.0
12/03:30pm 29.7 26.2 7.0 24 12.4 W 15 26 8 14 1012.5 1011.2 0.0
12/03:00pm 29.0 24.9 6.4 24 12.2 WSW 17 26 9 14 1012.9 1011.6 0.0
12/02:30pm 28.3 25.4 9.6 31 10.6 W 15 24 8 13 1013.2 1011.9 0.0
12/02:00pm 28.7 26.3 9.9 31 10.7 W 13 24 7 13 1013.5 1012.1 0.0
12/01:30pm 27.6 25.8 10.8 35 9.7 WNW 11 19 6 10 1013.8 1012.4 0.0
12/01:00pm 26.3 24.9 13.4 45 7.7 WSW 13 20 7 11 1014.0 1012.6 0.0
12/12:30pm 27.0 26.7 15.4 49 7.2 WSW 11 20 6 11 1014.3 1012.9 0.0
12/12:00pm 26.7 24.0 10.4 36 9.3 W 15 26 8 14 1014.4 1013.0 0.0
12/11:30am 27.1 27.1 14.1 44 7.9 NNW 7 11 4 6 1014.6 1013.2 0.0
12/11:00am 25.5 25.2 13.4 47 7.2 NNE 7 15 4 8 1014.8 1013.4 0.0
12/10:30am 23.6 22.6 14.6 57 5.4 NE 13 20 7 11 1014.9 1013.6 0.0
12/10:00am 21.8 20.5 14.9 65 4.1 ENE 15 22 8 12 1015.0 1013.7 0.0
12/09:30am 19.6 18.9 15.3 76 2.6 ENE 13 17 7 9 1015.2 1013.9 0.0
12/09:00am 17.0 15.8 14.1 83 1.7 E 13 17 7 9 1015.4 1014.1 0.2
12/08:30am 15.4 14.1 14.8 96 0.3 ENE 15 20 8 11 1015.3 1014.0 0.2
12/08:00am 14.2 12.2 14.0 99 0.1 E 17 20 9 11 1015.1 1013.8 0.2
12/07:30am 13.4 11.2 13.2 99 0.1 E 17 20 9 11 1014.9 1013.6 0.2
12/07:00am 13.4 11.2 13.2 99 0.1 E 17 20 9 11 1014.9 1013.6 0.2
12/06:30am 13.5 10.9 13.3 99 0.1 ESE 19 26 10 14 1014.8 1013.4 0.0
12/06:00am 13.5 10.9 13.3 99 0.1 ESE 19 26 10 14 1014.5 1013.1 0.0
12/05:30am 13.6 11.1 13.4 99 0.1 ESE 19 24 10 13 1014.3 1012.9 0.0
12/05:00am 13.7 11.2 13.4 98 0.2 ESE 19 26 10 14 1014.2 1012.8 0.0
12/04:30am 13.7 11.9 13.4 98 0.2 ESE 15 22 8 12 1014.2 1012.8 0.0
12/04:00am 13.9 11.4 13.6 98 0.2 ESE 19 26 10 14 1014.2 1012.8 0.0
12/03:30am 13.9 11.2 13.6 98 0.2 SE 20 30 11 16 1014.3 1012.9 0.0
12/03:00am 13.8 11.0 13.3 97 0.3 ESE 20 30 11 16 1014.4 1013.0 0.0
12/02:30am 13.8 11.0 13.2 96 0.3 SE 20 30 11 16 1014.7 1013.3 0.0
12/02:00am 14.0 10.9 13.4 96 0.3 SE 22 33 12 18 1014.7 1013.3 0.0
12/01:30am 14.1 10.6 13.3 95 0.5 SE 24 33 13 18 1015.0 1013.7 0.0
12/01:00am 14.2 10.3 13.2 94 0.6 SE 26 41 14 22 1015.3 1014.0 0.0
12/12:30am 14.4 10.1 13.3 93 0.6 SE 28 41 15 22 1015.4 1014.1 0.0
12/12:00am 14.4 10.2 13.4 94 0.6 SE 28 44 15 24 1015.6 1014.3 0.0
 
Date/Time
CDT
Tmp

°C
App
Tmp
°C
Dew
Point
°C
Rel
Hum
%
Delta-T

°C
Wind Press
QNH
hPa
Press
MSL
hPa
Rain
since
9 am
mm
Dir
 
Spd
km/h
Gust
km/h
Spd
kts
Gust
kts
11/11:30pm 14.6 10.8 13.5 93 0.6 SE 26 39 14 21 1015.8 1014.5 0.0
11/11:00pm 14.6 10.4 13.5 93 0.6 SE 28 46 15 25 1015.9 1014.6 0.0
11/10:51pm 14.7 10.5 13.6 93 0.6 SE 28 46 15 25 1016.0 1014.7 0.0
11/10:30pm 14.7 10.5 13.6 93 0.6 SE 28 43 15 23 1016.3 1014.9 0.0
11/10:00pm 14.8 11.0 13.5 92 0.7 SE 26 39 14 21 1016.2 1014.8 0.0
11/09:30pm 14.9 10.7 13.4 91 0.8 SSE 28 43 15 23 1016.0 1014.7 0.0
11/09:16pm 15.0 10.8 13.5 91 0.9 SSE 28 52 15 28 1015.8 1014.5 0.0
11/09:00pm 15.1 10.8 13.3 89 1.0 SSE 28 44 15 24 1015.6 1014.3 0.0
11/08:30pm 15.5 11.2 13.2 86 1.3 SE 28 41 15 22 1015.4 1014.1 0.0
11/08:00pm 16.3 12.4 13.2 82 1.8 SE 26 44 14 24 1015.3 1014.0 0.0
11/07:30pm 16.9 13.0 13.2 79 2.1 SE 26 39 14 21 1015.1 1013.8 0.0
11/07:00pm 17.6 13.7 13.3 76 2.5 SSE 26 41 14 22 1015.1 1013.8 0.0
11/06:30pm 18.9 15.7 13.1 69 3.3 SE 22 35 12 19 1014.8 1013.4 0.0
11/06:00pm 20.0 16.3 12.7 63 4.2 SE 24 35 13 19 1014.6 1013.2 0.0
11/05:30pm 20.6 17.1 12.1 58 4.8 SSE 22 33 12 18 1014.7 1013.3 0.0
11/05:00pm 22.4 19.4 12.1 52 5.9 SE 19 30 10 16 1014.5 1013.1 0.0
11/04:30pm 22.6 19.7 12.3 52 5.9 SSE 19 30 10 16 1014.5 1013.1 0.0
11/04:00pm 23.2 19.8 10.6 45 7.1 SE 19 26 10 14 1014.7 1013.3 0.0
11/03:30pm 23.4 19.7 9.4 41 7.7 SE 19 30 10 16 1014.8 1013.4 0.0
11/03:00pm 22.9 19.5 10.7 46 6.8 SE 19 30 10 16 1015.1 1013.8 0.0
11/02:30pm 23.7 19.7 8.9 39 8.1 ESE 20 32 11 17 1015.2 1013.9 0.0
11/02:00pm 23.2 20.2 10.6 45 7.1 ESE 17 30 9 16 1015.3 1014.0 0.0
11/01:30pm 22.8 19.4 11.2 48 6.6 ESE 20 28 11 15 1015.3 1014.0 0.0
11/01:00pm 22.4 19.1 11.5 50 6.2 SE 20 33 11 18 1015.5 1014.2 0.0
11/12:30pm 21.9 18.2 11.6 52 5.8 ESE 22 33 12 18 1015.9 1014.6 0.0
11/12:00pm 22.0 19.1 12.3 54 5.6 ESE 19 28 10 15 1015.9 1014.6 0.0
11/11:30am 20.8 17.8 12.5 59 4.8 ESE 20 30 11 16 1015.9 1014.6 0.0
11/11:00am 19.9 16.3 12.9 64 4.0 ESE 24 35 13 19 1016.2 1014.8 0.0
11/10:30am 18.8 15.2 13.2 70 3.2 ESE 24 35 13 19 1016.2 1014.8 0.0
11/10:00am 17.7 13.3 13.0 74 2.7 ESE 28 37 15 20 1016.5 1015.1 0.0
11/09:30am 16.4 11.6 12.9 80 2.0 ESE 30 44 16 24 1016.6 1015.2 0.0
11/09:00am 15.7 11.0 13.2 85 1.4 ESE 30 41 16 22 1016.8 1015.4 0.0
11/08:30am 14.5 9.7 12.9 90 0.9 SE 30 43 16 23 1016.7 1015.3 0.0
11/08:00am 14.2 9.8 12.9 92 0.7 SE 28 44 15 24 1016.4 1015.0 0.0
11/07:30am 13.9 9.8 12.8 93 0.6 SE 26 44 14 24 1015.9 1014.6 0.0
11/07:12am 13.9 9.5 12.8 93 0.6 SE 28 46 15 25 1015.8 1014.5 0.0
11/07:00am 13.9 9.5 12.8 93 0.6 SE 28 44 15 24 1015.6 1014.3 0.0
11/06:47am 13.9 9.5 12.8 93 0.6 SE 28 46 15 25 1015.5 1014.2 0.0
11/06:30am 13.8 9.4 12.9 94 0.5 SE 28 44 15 24 1015.4 1014.1 0.0
11/06:00am 13.8 9.7 12.7 93 0.6 SE 26 41 14 22 1015.0 1013.7 0.0
11/05:30am 13.9 9.4 12.5 91 0.8 SE 28 46 15 25 1014.8 1013.4 0.0
11/05:00am 14.1 9.6 12.7 91 0.8 SE 28 50 15 27 1014.6 1013.2 0.0
11/04:30am 14.1 9.6 12.7 91 0.8 SE 28 54 15 29 1014.4 1013.0 0.0
11/04:08am 14.2 9.9 13.1 93 0.6 SE 28 46 15 25 1014.4 1013.0 0.0
11/04:00am 14.2 9.9 13.1 93 0.6 SE 28 44 15 24 1014.3 1012.9 0.0
11/03:30am 14.2 10.2 13.1 93 0.6 SE 26 43 14 23 1014.3 1012.9 0.0
11/03:04am 14.1 9.0 13.0 93 0.6 SE 32 52 17 28 1014.1 1012.7 0.0
11/03:00am 14.1 9.3 13.0 93 0.6 SE 30 44 16 24 1014.2 1012.8 0.0
11/02:30am 14.2 9.9 13.1 93 0.6 SE 28 41 15 22 1014.5 1013.1 0.0
11/02:00am 14.1 10.5 13.1 94 0.6 SE 24 43 13 23 1014.6 1013.2 0.0
11/01:30am 14.2 10.2 13.1 93 0.6 SE 26 41 14 22 1014.9 1013.6 0.0
11/01:00am 14.3 9.6 13.2 93 0.6 SE 30 52 16 28 1015.0 1013.7 0.0
11/12:45am 14.2 9.9 13.2 94 0.6 SE 28 48 15 26 1015.0 1013.7 0.0
11/12:30am 14.2 9.9 13.2 94 0.6 SE 28 43 15 23 1015.1 1013.8 0.0
11/12:00am 14.3 10.0 13.3 94 0.6 SE 28 43 15 23 1015.0 1013.7 0.0
 
Date/Time
CDT
Tmp

°C
App
Tmp
°C
Dew
Point
°C
Rel
Hum
%
Delta-T

°C
Wind Press
QNH
hPa
Press
MSL
hPa
Rain
since
9 am
mm
Dir
 
Spd
km/h
Gust
km/h
Spd
kts
Gust
kts
10/11:31pm 14.3 10.0 13.3 94 0.6 SE 28 48 15 26 1014.8 1013.4 0.0
10/11:30pm 14.3 10.0 13.3 94 0.6 SE 28 39 15 21 1014.9 1013.6 0.0
10/11:00pm 14.2 10.3 13.4 95 0.5 SE 26 37 14 20 1015.0 1013.7 0.0
10/10:30pm 14.2 10.2 13.1 93 0.6 SE 26 43 14 23 1015.0 1013.7 0.0
10/10:00pm 14.2 10.2 13.1 93 0.6 SE 26 39 14 21 1014.9 1013.6 0.0
10/09:30pm 14.3 10.4 13.2 93 0.6 SE 26 37 14 20 1014.7 1013.3 0.0
10/09:00pm 14.5 10.6 13.2 92 0.7 SE 26 39 14 21 1014.7 1013.3 0.0
10/08:30pm 15.0 11.5 13.4 90 0.9 SE 24 37 13 20 1014.6 1013.2 0.0
10/08:00pm 16.0 12.1 13.3 84 1.5 SE 26 41 14 22 1014.5 1013.1 0.0
10/07:30pm 16.8 12.4 12.9 78 2.2 SE 28 43 15 23 1014.2 1012.8 0.0
10/07:21pm 17.3 12.7 12.4 73 2.8 SE 28 46 15 25 1014.1 1012.7 0.0
10/07:00pm 17.8 13.3 10.2 61 4.1 SE 24 39 13 21 1014.0 1012.6 0.0
10/06:30pm 18.2 14.1 11.3 64 3.8 SE 24 35 13 19 1013.9 1012.5 0.0
10/06:00pm 19.3 15.6 12.6 65 3.8 SSE 24 32 13 17 1013.7 1012.3 0.0
10/05:30pm 20.1 17.0 12.1 60 4.5 SE 20 35 11 19 1013.4 1012.0 0.0
10/05:00pm 20.9 17.8 12.3 58 4.9 SE 20 33 11 18 1013.5 1012.1 0.0
10/04:30pm 23.7 21.1 12.0 48 6.7 SE 17 28 9 15 1013.4 1012.0 0.0
10/04:00pm 23.6 20.3 11.6 47 6.9 SSE 20 30 11 16 1013.5 1012.1 0.0
10/03:30pm 24.8 21.1 11.4 43 7.7 SE 22 37 12 20 1013.6 1012.2 0.0
10/03:00pm 24.9 22.0 12.2 45 7.4 SE 19 30 10 16 1014.1 1012.7 0.0
10/02:30pm 24.2 21.4 13.1 50 6.5 SE 20 35 11 19 1014.1 1012.7 0.0
10/02:00pm 26.0 24.0 12.8 44 7.8 ESE 15 24 8 13 1014.2 1012.8 0.0
10/01:30pm 24.8 22.3 12.4 46 7.2 ESE 17 24 9 13 1014.5 1013.1 0.0
10/01:00pm 24.7 22.8 13.0 48 6.9 ESE 15 22 8 12 1014.8 1013.4 0.0
10/12:30pm 24.2 21.5 12.8 49 6.7 ESE 19 28 10 15 1015.2 1013.9 0.0
10/12:00pm 23.5 20.7 11.5 47 6.8 ESE 17 24 9 13 1015.5 1014.2 0.0
10/11:30am 23.7 19.9 8.9 39 8.1 SE 19 26 10 14 1015.7 1014.4 0.0
10/11:00am 22.4 18.7 9.6 44 7.0 ESE 19 26 10 14 1015.8 1014.5 0.0
10/10:30am 20.8 18.0 12.5 59 4.8 ESE 19 28 10 15 1016.0 1014.7 0.0
10/10:00am 18.6 15.6 12.4 67 3.5 ESE 20 28 11 15 1015.8 1014.5 0.0
10/09:30am 17.0 14.0 12.7 76 2.4 SE 20 28 11 15 1015.8 1014.5 0.0
10/09:00am 15.7 13.5 13.2 85 1.4 ESE 17 24 9 13 1015.4 1014.1 0.0
10/08:30am 14.1 11.6 13.6 97 0.3 SE 19 32 10 17 1015.6 1014.3 0.0
10/08:00am 13.0 10.1 12.8 99 0.1 SE 20 30 11 16 1015.3 1014.0 0.0
10/07:30am 12.9 10.1 12.7 99 0.1 ESE 19 22 10 12 1014.9 1013.6 0.0
10/07:00am 12.3 9.7 12.1 99 0.1 ESE 17 20 9 11 1014.7 1013.3 0.0
10/06:30am 12.5 10.0 12.3 99 0.1 ESE 17 20 9 11 1014.5 1013.1 0.0
10/06:00am 12.6 10.1 12.3 98 0.2 ESE 17 20 9 11 1014.3 1012.9 0.0
10/05:30am 12.8 9.9 12.3 97 0.3 SE 19 24 10 13 1014.3 1012.9 0.0
10/05:00am 13.0 10.0 12.1 94 0.5 SE 19 24 10 13 1014.2 1012.8 0.0
10/04:30am 13.2 10.3 12.3 94 0.5 ESE 19 24 10 13 1014.2 1012.8 0.0
10/04:00am 13.4 10.3 12.3 93 0.6 SE 20 28 11 15 1014.4 1013.0 0.0
10/03:30am 13.6 10.4 11.3 86 1.2 SE 19 28 10 15 1014.5 1013.1 0.0
10/03:00am 14.0 10.7 10.8 81 1.7 SE 19 24 10 13 1014.6 1013.2 0.0
10/02:30am 14.0 10.5 10.8 81 1.7 SE 20 26 11 14 1014.7 1013.3 0.0
10/02:00am 14.1 10.6 10.9 81 1.7 SE 20 28 11 15 1015.0 1013.7 0.0
10/01:30am 14.5 10.9 9.7 73 2.5 SE 19 26 10 14 1015.2 1013.9 0.0
10/01:00am 15.2 11.1 8.7 65 3.4 ESE 20 26 11 14 1015.5 1014.2 0.0
10/12:30am 15.0 10.8 9.8 71 2.7 ESE 22 32 12 17 1015.7 1014.4 0.0
10/12:00am 14.4 10.9 11.0 80 1.8 SE 20 28 11 15 1016.0 1014.7 0.0
 
Date/Time
CDT
Tmp

°C
App
Tmp
°C
Dew
Point
°C
Rel
Hum
%
Delta-T

°C
Wind Press
QNH
hPa
Press
MSL
hPa
Rain
since
9 am
mm
Dir
 
Spd
km/h
Gust
km/h
Spd
kts
Gust
kts
09/11:30pm 14.6 11.3 11.7 83 1.6 SE 20 30 11 16 1016.3 1014.9 0.0
09/11:00pm 14.9 11.1 11.1 78 2.1 SE 22 35 12 19 1016.3 1014.9 0.0

Latest Capital City Observations: Canberra | Sydney | Melbourne | Brisbane | Adelaide | Perth | Hobart | Darwin

Other Formats:

Comma delimited format used in spreadsheet applications
http://www.bom.gov.au/fwo/IDS60901/IDS60901.94683.axf

JavaScript Object Notation format (JSON) in row-major order
http://www.bom.gov.au/fwo/IDS60901/IDS60901.94683.json